Bad River Indian Reservation, Wisconsin
Current Conditions -  °F | °C
As of 6:53 PM on Saturday 25 Oct 2014 (Local Time) from KASX Reporting Station
Clear Clear  
Wind Chill: 11°   Ceiling: Unl
Heat Index: 11°   Visibility: 10mi
Dew Point: -3°   Wind: 9mph
Humidity: 39%   Direction: 260°W
Pressure: 29.94"   Gusts: NA
Location:  46.543°N, 90.8706°W
Report Text: KASX 252353Z AUTO 26008KT 10SM CLR 11/M03 A2994 RMK AO2 SLP145 T01061028 10161 20106 51017
Loading
Personal Weather Stations






























Interactive Weather Map
Tropical Storm Tracking
New forecast layout! Learn more

10-Day Weather Forecast

Advertisements
Track Severe Weather on mobile